ストックホルム/アーランダ の空港の天気 - METARとTAF

ストックホルム・アーランダ空港 ( ESSA / ARN ) - スウェーデン ストックホルム
飛行場実況気象(Metar)
観測時間04/25 18:20 CEST (04/25 16:20 UTC)
風向・風速南南東 3m/s
視程4600m
天気現象弱い霧雨
全天の4割程度の雲 雲底高度 460m
全天の8割程度の雲 雲底高度 730m
気温3℃
湿度87%
気圧994hPa
METARESSA 251620Z 16006KT 4600 -DZ SCT015 BKN024 03/01 Q0994 R01L/29//95 R08/29//95 R01R/29//95 NOSIG
過去の天気等 Google飛行場航空写真 Wunderground天気予報

過去48時間のMETAR

飛行場予報(TAF)
発表時間: 4/25 16:51 CEST (4/25 14:51 UTC)
予報対象時間: 25日16時 CEST ~ 26日14時 CEST
風向・風速南 3m/s
視程10km以上
全天の4割程度の雲 雲底高度 300m
全天の8割程度の雲 雲底高度 910m
25日16時 CEST ~ 25日22時 CEST に一時的に
視程2,500m
天気現象しゅう雨雪
全天の8割程度の雲 雲底高度 210m
全天の4割程度の積乱雲 雲底高度 610m
25日22時 CEST ~ 26日8時 CEST に一時的に
視程4,000m
天気現象雨雪
全天の8割程度の雲 雲底高度 180m
25日21時 CEST ~ 25日24時 CEST に徐々に
風向・風速北 5m/s
TAF AMD ESSA 251451Z 2514/2612 18006KT 9999 SCT010 BKN030
TEMPO 2514/2520 2500 SHRASN BKN007 SCT020CB
TEMPO 2520/2606 4000 RASN BKN006
BECMG 2519/2522 36010KT